Time;durP1;ratioP1;P1;durP2;ratioP2;P2;SDS_P1;SDS_P2;PMS_P1;PMS_P2;Temp;Humidity;BMP_temperature;BMP_pressure;BME280_temperature;BME280_humidity;BME280_pressure;Samples;Min_cycle;Max_cycle;Signal;HPM_P1;HPM_P2
2022/10/09 03:02:48;;;;;;;0.80;0.77;;;12.10;77.90;;;;;;5087011;23;20572;-78
2022/10/09 03:05:15;;;;;;;0.80;0.80;;;12.10;77.90;;;;;;4978326;28;20967;-78
2022/10/09 03:07:49;;;;;;;0.70;0.70;;;12.00;78.20;;;;;;4978603;28;20442;-78
2022/10/09 03:10:15;;;;;;;0.70;0.70;;;12.00;77.90;;;;;;4978559;28;20474;-78
2022/10/09 03:12:42;;;;;;;0.70;0.70;;;12.00;78.20;;;;;;4978358;28;20470;-78
2022/10/09 03:15:10;;;;;;;0.70;0.70;;;11.90;77.90;;;;;;4979928;28;20836;-78
2022/10/09 03:17:37;;;;;;;0.90;0.90;;;11.90;78.10;;;;;;4978688;28;20457;-78
2022/10/09 03:20:06;;;;;;;0.70;0.70;;;11.90;77.90;;;;;;4979265;28;20501;-78
2022/10/09 03:22:33;;;;;;;0.60;0.60;;;11.90;78.00;;;;;;4978287;28;20478;-78
2022/10/09 03:25:00;;;;;;;0.80;0.80;;;11.80;78.20;;;;;;4978284;28;20446;-78
2022/10/09 03:27:26;;;;;;;0.80;0.80;;;11.80;78.20;;;;;;4977893;28;20883;-78
2022/10/09 03:29:53;;;;;;;0.93;0.77;;;11.80;78.20;;;;;;4978727;28;20478;-78
2022/10/09 03:32:20;;;;;;;0.70;0.70;;;11.80;78.20;;;;;;4978107;28;20950;-78
2022/10/09 03:34:46;;;;;;;0.80;0.70;;;11.80;78.10;;;;;;4978076;28;20508;-78
2022/10/09 03:37:14;;;;;;;0.70;0.70;;;11.80;78.30;;;;;;4978026;28;20504;-78
2022/10/09 03:39:41;;;;;;;0.70;0.70;;;11.80;78.40;;;;;;4978084;28;20455;-78
2022/10/09 03:42:08;;;;;;;0.87;0.73;;;11.80;78.40;;;;;;4977969;28;20495;-78
2022/10/09 03:44:35;;;;;;;0.80;0.70;;;11.80;78.40;;;;;;4977622;28;20934;-78
2022/10/09 03:47:01;;;;;;;0.80;0.70;;;11.80;78.60;;;;;;4977896;28;20453;-78
2022/10/09 03:49:28;;;;;;;0.73;0.73;;;11.80;78.60;;;;;;4977800;28;20903;-78
2022/10/09 03:51:55;;;;;;;0.80;0.80;;;11.80;78.60;;;;;;4977733;28;20485;-78
2022/10/09 03:54:23;;;;;;;0.73;0.73;;;11.90;78.70;;;;;;4977850;28;20446;-78
2022/10/09 03:56:49;;;;;;;0.80;0.80;;;11.80;78.90;;;;;;4977739;28;20453;-78
2022/10/09 03:59:16;;;;;;;0.80;0.77;;;11.80;79.10;;;;;;4977664;28;20446;-78
2022/10/09 04:01:43;;;;;;;0.73;0.73;;;11.80;78.90;;;;;;4977410;28;20485;-78
2022/10/09 04:04:09;;;;;;;0.90;0.80;;;11.80;78.60;;;;;;4977551;28;20462;-75
2022/10/09 04:06:36;;;;;;;0.70;0.70;;;11.80;78.80;;;;;;4977458;28;20516;-75
2022/10/09 04:09:03;;;;;;;0.70;0.70;;;11.80;78.80;;;;;;4977350;28;20486;-75
2022/10/09 04:11:31;;;;;;;0.73;0.73;;;11.80;78.70;;;;;;4977369;28;20500;-74
2022/10/09 04:13:57;;;;;;;0.70;0.70;;;11.80;78.70;;;;;;4977234;28;20442;-75
2022/10/09 04:16:24;;;;;;;0.70;0.70;;;11.80;78.70;;;;;;4977500;28;20450;-78
2022/10/09 04:18:51;;;;;;;0.80;0.80;;;11.80;78.90;;;;;;4977953;28;20566;-78
2022/10/09 04:21:18;;;;;;;0.70;0.70;;;11.80;78.80;;;;;;4977775;28;20524;-78
2022/10/09 04:23:44;;;;;;;0.70;0.70;;;11.80;78.50;;;;;;4977825;28;20453;-77
2022/10/09 04:26:12;;;;;;;1.00;1.00;;;11.90;78.30;;;;;;4977802;28;20471;-78
2022/10/09 04:28:40;;;;;;;0.70;0.70;;;11.80;78.20;;;;;;4977990;28;20449;-78
2022/10/09 04:31:07;;;;;;;0.70;0.67;;;11.80;78.30;;;;;;4977591;28;20477;-77
2022/10/09 04:33:33;;;;;;;0.70;0.70;;;11.70;78.40;;;;;;4977735;28;20457;-78
2022/10/09 04:36:00;;;;;;;0.70;0.70;;;11.70;78.20;;;;;;4977703;28;20501;-78
2022/10/09 04:38:27;;;;;;;0.60;0.60;;;11.70;78.30;;;;;;4983809;28;20479;-78
2022/10/09 04:40:57;;;;;;;0.70;0.70;;;11.70;78.30;;;;;;4976504;28;20981;-76
2022/10/09 04:43:24;;;;;;;2.17;0.97;;;11.60;78.10;;;;;;4977599;28;20454;-76
2022/10/09 04:45:52;;;;;;;1.37;0.87;;;11.60;78.40;;;;;;4977112;28;20509;-76
2022/10/09 04:48:18;;;;;;;0.90;0.73;;;11.60;78.20;;;;;;4982878;28;20446;-77
2022/10/09 04:50:45;;;;;;;0.70;0.70;;;11.60;78.00;;;;;;4983874;28;20497;-78
2022/10/09 04:53:13;;;;;;;0.70;0.70;;;11.50;78.20;;;;;;4978214;28;20535;-78
2022/10/09 04:55:40;;;;;;;0.97;0.80;;;11.50;78.30;;;;;;4976727;28;20539;-78
2022/10/09 04:58:07;;;;;;;0.70;0.60;;;11.50;78.40;;;;;;4976950;28;20906;-78
2022/10/09 05:00:48;;;;;;;0.80;0.80;;;11.50;78.40;;;;;;4977108;28;20447;-77
2022/10/09 05:03:16;;;;;;;0.90;0.80;;;11.40;78.40;;;;;;4977057;28;20466;-77
2022/10/09 05:05:43;;;;;;;0.73;0.73;;;11.40;78.50;;;;;;4977252;28;20450;-78
2022/10/09 05:08:10;;;;;;;1.17;0.70;;;11.40;78.70;;;;;;4976653;28;20942;-78
2022/10/09 05:10:36;;;;;;;0.77;0.77;;;11.30;78.90;;;;;;4976639;28;20497;-78
2022/10/09 05:13:03;;;;;;;1.27;1.17;;;11.30;79.10;;;;;;4976516;28;20528;-77
2022/10/09 05:15:30;;;;;;;1.00;0.80;;;11.30;79.20;;;;;;4976301;28;20450;-78
2022/10/09 05:17:57;;;;;;;0.73;0.73;;;11.30;78.90;;;;;;4976251;28;20450;-78
2022/10/09 05:20:25;;;;;;;0.73;0.73;;;11.30;78.90;;;;;;4976003;28;20968;-78
2022/10/09 05:22:52;;;;;;;0.80;0.80;;;11.30;79.10;;;;;;4976420;28;20462;-78
2022/10/09 05:25:19;;;;;;;0.80;0.70;;;11.30;78.90;;;;;;4975971;28;20451;-78
2022/10/09 05:27:45;;;;;;;0.80;0.73;;;11.30;79.00;;;;;;4976515;28;20466;-78
2022/10/09 05:30:12;;;;;;;0.73;0.73;;;11.30;79.10;;;;;;4976645;28;20618;-78
2022/10/09 05:32:39;;;;;;;0.70;0.70;;;11.30;79.10;;;;;;4976780;28;20502;-78
2022/10/09 05:35:07;;;;;;;0.70;0.70;;;11.30;79.00;;;;;;4976940;28;20458;-78
2022/10/09 05:37:35;;;;;;;0.70;0.70;;;11.30;78.90;;;;;;4976645;28;20454;-78
2022/10/09 05:40:02;;;;;;;0.83;0.83;;;11.30;79.10;;;;;;4976832;28;20450;-78
2022/10/09 05:42:28;;;;;;;0.73;0.73;;;11.30;79.00;;;;;;4976155;28;20981;-78
2022/10/09 05:44:55;;;;;;;2.73;0.70;;;11.30;78.90;;;;;;4976412;28;20458;-78
2022/10/09 05:47:22;;;;;;;0.80;0.80;;;11.30;79.10;;;;;;4976248;28;20450;-78
2022/10/09 05:49:48;;;;;;;0.70;0.70;;;11.30;78.90;;;;;;4976170;28;20478;-78
2022/10/09 05:52:15;;;;;;;1.33;0.87;;;11.30;78.80;;;;;;4975883;28;20524;-78
2022/10/09 05:54:43;;;;;;;1.00;0.80;;;11.30;78.60;;;;;;4975557;28;20446;-78
2022/10/09 05:57:10;;;;;;;0.83;0.70;;;11.30;78.60;;;;;;4975244;28;20445;-78
2022/10/09 05:59:37;;;;;;;0.70;0.70;;;11.30;78.70;;;;;;4975512;28;20470;-78
2022/10/09 06:02:04;;;;;;;0.70;0.70;;;11.30;78.70;;;;;;4975154;28;20496;-78
2022/10/09 06:04:30;;;;;;;1.40;0.70;;;11.30;78.90;;;;;;4975422;28;20457;-78
2022/10/09 06:06:57;;;;;;;0.80;0.73;;;11.40;78.70;;;;;;4975622;28;20450;-78
2022/10/09 06:09:25;;;;;;;0.70;0.70;;;11.40;78.60;;;;;;4975336;28;20496;-78
2022/10/09 06:11:54;;;;;;;1.13;0.70;;;11.50;78.70;;;;;;4975179;28;20466;-78
2022/10/09 06:14:21;;;;;;;0.80;0.80;;;11.60;79.00;;;;;;4975169;28;20457;-78
2022/10/09 06:16:49;;;;;;;0.73;0.73;;;11.90;78.40;;;;;;4975141;28;20490;-78
2022/10/09 06:19:18;;;;;;;0.70;0.70;;;12.20;78.20;;;;;;4975205;28;20458;-78
2022/10/09 06:21:45;;;;;;;0.70;0.70;;;12.80;77.00;;;;;;4974993;28;20561;-78
2022/10/09 06:24:18;;;;;;;0.90;0.90;;;13.70;74.70;;;;;;4975052;28;20464;-76
2022/10/09 06:26:45;;;;;;;0.70;0.70;;;15.00;71.10;;;;;;4974991;28;20485;-76
2022/10/09 06:29:13;;;;;;;0.80;0.80;;;16.50;67.00;;;;;;4974934;28;20457;-76
2022/10/09 06:31:40;;;;;;;0.80;0.80;;;17.60;63.70;;;;;;4974741;28;20486;-76
2022/10/09 06:34:07;;;;;;;0.60;0.60;;;18.90;60.60;;;;;;4974849;28;20462;-76
2022/10/09 06:36:34;;;;;;;0.67;0.67;;;20.30;57.20;;;;;;4973941;28;20453;-76
2022/10/09 06:39:03;;;;;;;0.70;0.60;;;21.70;54.20;;;;;;4974507;28;20969;-76
2022/10/09 06:41:30;;;;;;;0.80;0.60;;;23.10;51.70;;;;;;4974687;28;20477;-76
2022/10/09 06:43:58;;;;;;;0.70;0.60;;;24.30;49.00;;;;;;4974367;28;20942;-76
2022/10/09 06:46:29;;;;;;;0.90;0.80;;;25.40;47.40;;;;;;4974755;28;20450;-76
2022/10/09 06:48:56;;;;;;;0.70;0.60;;;26.50;44.70;;;;;;4974865;28;20462;-76
2022/10/09 06:51:23;;;;;;;0.60;0.60;;;27.30;43.50;;;;;;4974805;28;20486;-76
2022/10/09 06:53:52;;;;;;;0.80;0.70;;;28.10;42.30;;;;;;4974687;28;20457;-77
2022/10/09 06:56:20;;;;;;;0.90;0.80;;;28.80;40.80;;;;;;4974652;28;20457;-77
2022/10/09 06:58:47;;;;;;;0.63;0.63;;;29.50;40.20;;;;;;4974373;28;20842;-77
2022/10/09 07:01:16;;;;;;;0.70;0.70;;;30.10;39.10;;;;;;4974641;28;20471;-77
2022/10/09 07:03:45;;;;;;;0.90;0.90;;;30.50;38.20;;;;;;4975545;28;20441;-77
2022/10/09 07:06:14;;;;;;;0.70;0.70;;;30.90;37.90;;;;;;4977130;28;20442;-78
2022/10/09 07:08:42;;;;;;;0.60;0.60;;;31.50;37.00;;;;;;4976180;28;20454;-80
2022/10/09 07:11:11;;;;;;;0.70;0.70;;;31.80;36.30;;;;;;4976918;28;20491;-77
2022/10/09 07:13:38;;;;;;;0.70;0.70;;;31.90;36.00;;;;;;4975839;28;20497;-78
2022/10/09 07:16:05;;;;;;;0.80;0.70;;;32.30;35.70;;;;;;4974776;28;20455;-77
2022/10/09 07:18:33;;;;;;;0.70;0.70;;;32.20;35.80;;;;;;4974505;28;20478;-77
2022/10/09 07:21:02;;;;;;;0.70;0.70;;;32.40;35.60;;;;;;4976517;28;20505;-75
2022/10/09 07:23:29;;;;;;;0.73;0.73;;;32.10;35.70;;;;;;4974185;28;20870;-77
2022/10/09 07:25:56;;;;;;;0.60;0.60;;;31.80;35.60;;;;;;4974856;28;20471;-77
2022/10/09 07:28:23;;;;;;;0.83;0.60;;;31.50;36.50;;;;;;4974358;28;20477;-77
2022/10/09 07:30:50;;;;;;;0.77;0.77;;;31.30;36.30;;;;;;4974219;28;20519;-76
2022/10/09 07:33:16;;;;;;;0.80;0.80;;;30.40;36.90;;;;;;4974304;28;20453;-76
2022/10/09 07:35:43;;;;;;;0.80;0.80;;;29.70;38.30;;;;;;4974281;28;20574;-77
2022/10/09 07:38:11;;;;;;;0.73;0.73;;;30.00;37.80;;;;;;4974279;28;20457;-77
2022/10/09 07:40:38;;;;;;;0.70;0.70;;;29.20;39.10;;;;;;4974169;28;20505;-76
2022/10/09 07:43:04;;;;;;;0.70;0.70;;;28.80;38.90;;;;;;4974179;28;20873;-76
2022/10/09 07:45:31;;;;;;;0.97;0.97;;;27.80;40.30;;;;;;4974179;28;20450;-76
2022/10/09 07:47:59;;;;;;;0.70;0.70;;;26.10;42.40;;;;;;4974930;28;20449;-77
2022/10/09 07:50:26;;;;;;;0.70;0.67;;;24.70;45.00;;;;;;4977637;28;20478;-76
2022/10/09 07:52:53;;;;;;;0.80;0.77;;;23.60;47.20;;;;;;4977739;28;20454;-76
2022/10/09 07:55:21;;;;;;;0.80;0.70;;;22.10;49.80;;;;;;4977903;28;20456;-76
2022/10/09 07:57:47;;;;;;;1.00;1.00;;;21.00;52.60;;;;;;4977676;28;20858;-76
2022/10/09 08:00:14;;;;;;;1.47;0.80;;;19.30;55.60;;;;;;4977597;28;20444;-76
2022/10/09 08:02:41;;;;;;;0.80;0.80;;;17.90;59.60;;;;;;4977155;28;20558;-76
2022/10/09 08:05:08;;;;;;;0.93;0.93;;;17.40;62.00;;;;;;4977234;28;20458;-76
2022/10/09 08:07:35;;;;;;;0.90;0.80;;;16.90;62.70;;;;;;4980961;28;20457;-76
2022/10/09 08:10:02;;;;;;;0.70;0.70;;;16.70;63.80;;;;;;4978433;28;20456;-76
2022/10/09 08:12:30;;;;;;;0.80;0.80;;;16.50;64.70;;;;;;4978726;28;20474;-76
2022/10/09 08:14:57;;;;;;;0.97;0.87;;;16.30;65.70;;;;;;4979301;28;20450;-76
2022/10/09 08:17:24;;;;;;;0.70;0.70;;;16.20;66.20;;;;;;4979434;28;20501;-76
2022/10/09 08:19:50;;;;;;;0.80;0.80;;;16.00;66.30;;;;;;4978914;28;20454;-76
2022/10/09 08:22:17;;;;;;;0.80;0.80;;;16.00;67.00;;;;;;4979028;28;20462;-76
2022/10/09 08:24:44;;;;;;;1.00;0.90;;;15.90;67.70;;;;;;4979171;28;20497;-76
2022/10/09 08:27:10;;;;;;;0.77;0.77;;;15.70;67.50;;;;;;4978991;28;20461;-76
2022/10/09 08:29:38;;;;;;;0.80;0.80;;;15.70;68.50;;;;;;4978765;28;20454;-76
2022/10/09 08:32:05;;;;;;;0.70;0.70;;;15.40;67.50;;;;;;4978693;28;20497;-76
2022/10/09 08:34:32;;;;;;;0.70;0.70;;;15.20;68.10;;;;;;4978656;28;20942;-75
2022/10/09 08:36:58;;;;;;;0.87;0.87;;;15.20;69.10;;;;;;4979059;28;20454;-75
2022/10/09 08:39:29;;;;;;;0.80;0.70;;;15.10;67.60;;;;;;4978282;28;20450;-76
2022/10/09 08:42:00;;;;;;;0.90;0.90;;;15.00;68.40;;;;;;4978199;28;20536;-75
2022/10/09 08:44:31;;;;;;;0.70;0.70;;;15.00;67.80;;;;;;4978811;28;20441;-76
2022/10/09 08:47:05;;;;;;;0.73;0.73;;;15.00;68.60;;;;;;4978453;28;20856;-74
2022/10/09 08:49:41;;;;;;;0.70;0.70;;;14.80;68.70;;;;;;4978417;28;20442;-75
2022/10/09 08:52:19;;;;;;;0.87;0.80;;;14.80;68.70;;;;;;4977339;28;21020;-74
2022/10/09 08:54:46;;;;;;;0.87;0.87;;;14.60;69.70;;;;;;4977029;28;20443;-74
2022/10/09 08:57:15;;;;;;;0.90;0.70;;;14.50;69.50;;;;;;4977176;28;20509;-74
2022/10/09 08:59:43;;;;;;;0.90;0.80;;;14.50;70.00;;;;;;4976342;28;20548;-74
2022/10/09 09:02:27;;;;;;;0.70;0.67;;;14.40;71.80;;;;;;4976787;28;20497;-74
2022/10/09 09:05:08;;;;;;;0.70;0.63;;;14.50;70.70;;;;;;4977245;28;20445;-74
2022/10/09 09:07:45;;;;;;;0.80;0.80;;;14.60;69.00;;;;;;4977020;28;20454;-75
2022/10/09 09:10:19;;;;;;;0.80;0.77;;;14.60;69.70;;;;;;4977375;28;20437;-74
2022/10/09 09:12:51;;;;;;;0.70;0.70;;;14.70;69.00;;;;;;4977190;28;20485;-74
2022/10/09 09:15:29;;;;;;;0.60;0.60;;;14.90;69.50;;;;;;4978072;28;20902;-74
2022/10/09 09:18:09;;;;;;;0.70;0.70;;;15.00;69.60;;;;;;4976666;28;20451;-74
2022/10/09 09:20:44;;;;;;;0.73;0.73;;;14.90;69.00;;;;;;4976558;28;20427;-74
2022/10/09 09:23:15;;;;;;;0.73;0.73;;;14.80;70.10;;;;;;4976732;28;20434;-74
2022/10/09 09:25:44;;;;;;;0.67;0.60;;;14.80;69.30;;;;;;4976482;28;20937;-74
2022/10/09 09:28:16;;;;;;;0.80;0.70;;;14.90;70.20;;;;;;4976385;28;20480;-74
2022/10/09 09:30:48;;;;;;;0.70;0.70;;;14.90;68.90;;;;;;4976944;28;20505;-74
2022/10/09 09:33:22;;;;;;;0.60;0.60;;;14.90;69.00;;;;;;4976627;28;20527;-75
2022/10/09 09:35:57;;;;;;;0.70;0.70;;;15.00;69.30;;;;;;4976445;28;20442;-75
2022/10/09 09:38:24;;;;;;;0.70;0.70;;;15.00;70.80;;;;;;4976181;28;20434;-75
2022/10/09 09:40:51;;;;;;;0.80;0.70;;;15.00;70.50;;;;;;4976069;28;20467;-75
2022/10/09 09:43:20;;;;;;;0.60;0.60;;;15.10;69.00;;;;;;4976075;28;20454;-75
2022/10/09 09:45:48;;;;;;;0.70;0.70;;;15.10;69.80;;;;;;4976363;28;20451;-75
2022/10/09 09:48:22;;;;;;;0.70;0.70;;;15.30;67.10;;;;;;4976276;28;20449;-75
2022/10/09 09:50:53;;;;;;;0.70;0.70;;;15.10;66.80;;;;;;4975554;28;21001;-75
2022/10/09 09:53:27;;;;;;;0.80;0.70;;;15.10;67.00;;;;;;4975706;28;20914;-75
2022/10/09 09:55:55;;;;;;;0.70;0.70;;;15.10;67.60;;;;;;4976106;28;20443;-75
2022/10/09 09:58:22;;;;;;;1.30;0.70;;;15.10;67.50;;;;;;4975764;28;20934;-74
2022/10/09 10:00:57;;;;;;;2.30;0.60;;;15.20;67.70;;;;;;4975834;28;20473;-75
2022/10/09 10:03:27;;;;;;;0.80;0.70;;;15.30;66.30;;;;;;4975951;28;20466;-75
2022/10/09 10:05:54;;;;;;;0.60;0.60;;;15.10;66.70;;;;;;4975890;28;20442;-74
2022/10/09 10:08:25;;;;;;;0.90;0.80;;;15.20;66.50;;;;;;4976109;28;20446;-75
2022/10/09 10:10:55;;;;;;;0.80;0.70;;;15.10;67.00;;;;;;4976465;28;20482;-75
2022/10/09 10:13:25;;;;;;;0.93;0.77;;;15.20;66.30;;;;;;4975852;28;20454;-75
2022/10/09 10:15:54;;;;;;;0.60;0.60;;;15.30;65.90;;;;;;4976072;28;21021;-75
2022/10/09 10:18:22;;;;;;;0.73;0.73;;;15.30;65.30;;;;;;4975995;28;20483;-74
2022/10/09 10:20:53;;;;;;;0.60;0.60;;;15.40;65.10;;;;;;4975668;28;20550;-75
2022/10/09 10:23:23;;;;;;;0.60;0.57;;;15.50;65.10;;;;;;4976197;28;20438;-75
2022/10/09 10:25:53;;;;;;;0.70;0.60;;;15.40;64.60;;;;;;4976593;28;20785;-75
2022/10/09 10:28:26;;;;;;;0.70;0.70;;;15.40;64.50;;;;;;4976466;28;20451;-75
2022/10/09 10:30:55;;;;;;;0.70;0.70;;;15.30;65.60;;;;;;4976142;28;20486;-75
2022/10/09 10:33:26;;;;;;;0.60;0.60;;;15.60;66.20;;;;;;4976115;28;20449;-75
2022/10/09 10:35:57;;;;;;;0.63;0.53;;;15.80;62.50;;;;;;4975403;28;20941;-75
2022/10/09 10:38:29;;;;;;;0.70;0.60;;;15.80;63.30;;;;;;4975755;28;20455;-75
2022/10/09 10:41:05;;;;;;;0.70;0.70;;;16.00;62.70;;;;;;4976442;28;20471;-75
2022/10/09 10:43:37;;;;;;;0.70;0.70;;;16.00;61.60;;;;;;4974807;28;20441;-75
2022/10/09 10:46:11;;;;;;;0.60;0.60;;;15.90;61.10;;;;;;4974796;28;20442;-75
2022/10/09 10:48:41;;;;;;;0.60;0.60;;;16.10;61.60;;;;;;4975230;28;20467;-75
2022/10/09 10:51:30;;;;;;;0.70;0.70;;;16.00;60.60;;;;;;4974618;28;20490;-75
2022/10/09 10:54:08;;;;;;;0.60;0.53;;;16.00;61.40;;;;;;4974952;28;20441;-75
2022/10/09 10:56:38;;;;;;;0.97;0.70;;;16.20;61.90;;;;;;4974349;28;20925;-75
2022/10/09 10:59:23;;;;;;;0.60;0.60;;;16.30;60.50;;;;;;4974654;28;20442;-75
2022/10/09 11:02:04;;;;;;;0.80;0.60;;;16.40;60.40;;;;;;4974314;28;20504;-75
2022/10/09 11:04:41;;;;;;;0.63;0.57;;;16.40;60.20;;;;;;4977495;28;20442;-75
2022/10/09 11:07:32;;;;;;;0.60;0.53;;;16.30;60.20;;;;;;4976977;28;20532;-76
2022/10/09 11:10:06;;;;;;;0.70;0.67;;;16.50;60.40;;;;;;4977297;28;20431;-75
2022/10/09 11:12:42;;;;;;;0.60;0.60;;;16.60;60.30;;;;;;4978852;28;20984;-76
2022/10/09 11:15:20;;;;;;;0.60;0.60;;;16.80;59.80;;;;;;4977613;28;20434;-75
2022/10/09 11:17:55;;;;;;;0.70;0.70;;;16.70;59.40;;;;;;4981268;28;20439;-75
2022/10/09 11:20:44;;;;;;;0.70;0.70;;;16.60;59.50;;;;;;4981731;28;20441;-74
2022/10/09 11:23:25;;;;;;;0.70;0.60;;;16.60;61.00;;;;;;4982885;28;20505;-75
2022/10/09 11:25:59;;;;;;;0.60;0.60;;;16.70;59.50;;;;;;4986166;28;20447;-75
2022/10/09 11:28:32;;;;;;;0.60;0.57;;;16.70;59.40;;;;;;4985165;28;20430;-76
2022/10/09 11:31:06;;;;;;;0.70;0.70;;;16.90;59.20;;;;;;4983095;28;20470;-75
2022/10/09 11:33:36;;;;;;;0.60;0.60;;;17.00;58.80;;;;;;4977838;28;20847;-75
2022/10/09 11:36:12;;;;;;;0.60;0.60;;;17.20;59.20;;;;;;4978156;28;20465;-75
2022/10/09 11:38:46;;;;;;;0.90;0.70;;;17.20;58.60;;;;;;4978135;28;20438;-77
2022/10/09 11:41:13;;;;;;;1.17;0.70;;;17.10;58.30;;;;;;4978540;28;20470;-76
2022/10/09 11:43:55;;;;;;;0.60;0.50;;;17.20;57.80;;;;;;4978139;28;20442;-76
2022/10/09 11:46:33;;;;;;;0.60;0.60;;;17.20;57.80;;;;;;4978173;28;20430;-77
2022/10/09 11:49:07;;;;;;;0.60;0.60;;;17.30;58.00;;;;;;4978445;28;20442;-77
2022/10/09 11:51:42;;;;;;;0.70;0.60;;;17.60;58.40;;;;;;4978209;28;20497;-77
2022/10/09 11:54:14;;;;;;;0.60;0.60;;;17.60;57.20;;;;;;4977650;28;20927;-76
2022/10/09 11:56:52;;;;;;;0.60;0.60;;;17.70;56.90;;;;;;4977808;28;20434;-75
2022/10/09 11:59:22;;;;;;;0.80;0.67;;;17.20;57.20;;;;;;4977685;28;20442;-76
2022/10/09 12:01:49;;;;;;;0.60;0.60;;;17.10;58.30;;;;;;4977383;28;20486;-75
2022/10/09 12:04:23;;;;;;;0.60;0.50;;;17.00;59.10;;;;;;4977622;28;20496;-74
2022/10/09 12:06:53;;;;;;;0.60;0.57;;;17.20;58.40;;;;;;4977680;28;20847;-75
2022/10/09 12:09:24;;;;;;;0.70;0.70;;;17.10;58.70;;;;;;4977638;28;20461;-75
2022/10/09 12:12:00;;;;;;;0.70;0.67;;;17.20;57.80;;;;;;4977493;28;20485;-74
2022/10/09 12:14:28;;;;;;;0.60;0.60;;;17.60;57.40;;;;;;4982040;28;20809;-77
2022/10/09 12:16:55;;;;;;;0.60;0.60;;;17.60;56.80;;;;;;4983135;28;20950;-75
2022/10/09 12:19:26;;;;;;;0.60;0.60;;;17.70;56.70;;;;;;4983766;28;20446;-76
2022/10/09 12:22:00;;;;;;;0.60;0.60;;;17.70;57.00;;;;;;4984919;28;20472;-76
2022/10/09 12:24:32;;;;;;;0.60;0.60;;;18.10;56.70;;;;;;4992341;28;20435;-76
2022/10/09 12:27:02;;;;;;;0.60;0.60;;;18.60;56.20;;;;;;4992885;28;20445;-75
2022/10/09 12:29:35;;;;;;;0.70;0.60;;;18.80;55.10;;;;;;4992942;28;20462;-76
2022/10/09 12:32:07;;;;;;;0.60;0.53;;;18.80;53.90;;;;;;4993455;28;20486;-76
2022/10/09 12:34:41;;;;;;;0.60;0.60;;;18.50;54.50;;;;;;4992984;28;20441;-75
2022/10/09 12:37:14;;;;;;;0.60;0.50;;;18.40;54.70;;;;;;4994046;28;20447;-76
2022/10/09 12:39:43;;;;;;;0.70;0.60;;;18.40;54.90;;;;;;4992174;28;20466;-76
2022/10/09 12:42:18;;;;;;;0.70;0.60;;;18.40;55.30;;;;;;4987592;28;20469;-75
2022/10/09 12:44:46;;;;;;;0.67;0.63;;;18.50;54.90;;;;;;4988483;28;20802;-76
2022/10/09 12:47:20;;;;;;;0.60;0.50;;;18.70;54.70;;;;;;4987298;28;20454;-75
2022/10/09 12:50:03;;;;;;;0.77;0.63;;;18.60;55.00;;;;;;4980527;28;20898;-76
2022/10/09 12:52:31;;;;;;;0.60;0.60;;;18.90;55.00;;;;;;4977076;28;20552;-75
2022/10/09 12:55:00;;;;;;;0.60;0.60;;;19.00;54.10;;;;;;4976650;28;20450;-75
2022/10/09 12:57:27;;;;;;;0.70;0.60;;;18.90;53.80;;;;;;4977161;28;20478;-77
2022/10/09 12:59:55;;;;;;;0.60;0.50;;;19.10;54.10;;;;;;4978326;28;20939;-77
2022/10/09 13:02:22;;;;;;;0.60;0.57;;;19.00;54.30;;;;;;4979216;28;20474;-77
2022/10/09 13:04:56;;;;;;;0.60;0.60;;;19.10;53.70;;;;;;4981927;28;20446;-78
2022/10/09 13:07:27;;;;;;;0.60;0.50;;;19.40;54.00;;;;;;4978601;28;20484;-78
2022/10/09 13:10:02;;;;;;;0.67;0.60;;;19.50;53.20;;;;;;4981122;28;20433;-78
2022/10/09 13:12:30;;;;;;;0.60;0.60;;;19.50;53.20;;;;;;4985848;28;20588;-78
2022/10/09 13:14:59;;;;;;;0.60;0.60;;;19.50;53.60;;;;;;4989706;28;20457;-78
2022/10/09 13:17:32;;;;;;;0.60;0.60;;;19.70;53.30;;;;;;4983562;28;20450;-78
2022/10/09 13:20:01;;;;;;;1.00;0.60;;;20.00;53.60;;;;;;4977901;28;20446;-78
2022/10/09 13:22:29;;;;;;;0.60;0.60;;;20.00;52.80;;;;;;4977458;28;20462;-78
2022/10/09 13:24:59;;;;;;;0.70;0.70;;;20.20;52.30;;;;;;4977293;28;20458;-77
2022/10/09 13:27:28;;;;;;;0.60;0.50;;;20.50;51.80;;;;;;4979247;28;20442;-78
2022/10/09 13:29:55;;;;;;;0.70;0.60;;;20.60;51.50;;;;;;4977819;28;21016;-77
2022/10/09 13:32:23;;;;;;;0.60;0.50;;;20.60;51.80;;;;;;4977913;28;20502;-77
2022/10/09 13:34:52;;;;;;;0.60;0.60;;;20.60;52.00;;;;;;4977584;28;20462;-78
2022/10/09 13:37:22;;;;;;;0.60;0.50;;;20.80;51.80;;;;;;4977587;28;20450;-77
2022/10/09 13:39:50;;;;;;;0.60;0.60;;;21.00;51.20;;;;;;4978896;28;20517;-78
2022/10/09 13:42:19;;;;;;;0.70;0.60;;;21.20;51.20;;;;;;4978089;28;20462;-77
2022/10/09 13:44:46;;;;;;;0.70;0.63;;;21.60;50.40;;;;;;4979355;28;20454;-77
2022/10/09 13:47:12;;;;;;;0.73;0.73;;;22.40;48.50;;;;;;4977903;28;20445;-78
2022/10/09 13:49:39;;;;;;;0.60;0.60;;;23.80;46.30;;;;;;4978295;28;20454;-78
2022/10/09 13:52:06;;;;;;;0.70;0.60;;;24.70;44.80;;;;;;4977383;28;20859;-76
2022/10/09 13:54:32;;;;;;;0.70;0.60;;;25.60;43.40;;;;;;4975621;28;20450;-76
2022/10/09 13:56:59;;;;;;;0.80;0.60;;;26.20;42.50;;;;;;4975468;28;20457;-76
2022/10/09 13:59:30;;;;;;;0.60;0.60;;;25.40;43.30;;;;;;4976163;28;20453;-76
2022/10/09 14:01:56;;;;;;;0.60;0.60;;;24.50;44.50;;;;;;4975754;28;20478;-76
2022/10/09 14:04:23;;;;;;;0.60;0.60;;;23.70;45.90;;;;;;4977129;28;20447;-76
2022/10/09 14:06:50;;;;;;;0.60;0.60;;;23.60;46.40;;;;;;4975868;28;20926;-76
2022/10/09 14:09:16;;;;;;;0.60;0.60;;;24.10;46.10;;;;;;4976030;28;20473;-76
2022/10/09 14:11:43;;;;;;;0.60;0.60;;;25.30;44.30;;;;;;4975945;28;20481;-76
2022/10/09 14:14:10;;;;;;;0.70;0.70;;;25.60;43.50;;;;;;4976241;28;20815;-75
2022/10/09 14:16:38;;;;;;;0.70;0.60;;;25.50;43.60;;;;;;4976207;28;20446;-76
2022/10/09 14:19:06;;;;;;;0.67;0.60;;;24.90;44.60;;;;;;4976139;28;20446;-75
2022/10/09 14:21:33;;;;;;;0.60;0.60;;;24.70;44.90;;;;;;4975710;28;20470;-75
2022/10/09 14:24:04;;;;;;;0.70;0.60;;;23.70;46.40;;;;;;4975409;28;20449;-75
2022/10/09 14:26:31;;;;;;;0.60;0.50;;;23.20;47.30;;;;;;4975299;28;20441;-75
2022/10/09 14:29:00;;;;;;;1.07;0.50;;;23.30;47.50;;;;;;4975461;28;20461;-76
2022/10/09 14:31:27;;;;;;;0.60;0.60;;;24.00;46.70;;;;;;4975381;28;20485;-75
2022/10/09 14:33:58;;;;;;;0.63;0.60;;;24.70;45.20;;;;;;4975426;28;20490;-75
2022/10/09 14:36:25;;;;;;;0.60;0.60;;;24.90;44.80;;;;;;4975880;28;20442;-75
2022/10/09 14:38:52;;;;;;;0.60;0.60;;;25.40;44.30;;;;;;4975429;28;20465;-75
2022/10/09 14:41:19;;;;;;;0.70;0.60;;;25.20;44.10;;;;;;4974861;28;20984;-75
2022/10/09 14:43:46;;;;;;;0.60;0.60;;;25.40;44.60;;;;;;4975048;28;20477;-75
2022/10/09 14:46:15;;;;;;;0.60;0.50;;;25.10;44.60;;;;;;4975110;28;20506;-75
2022/10/09 14:48:43;;;;;;;0.70;0.70;;;24.70;45.10;;;;;;4974864;28;20450;-75
2022/10/09 14:51:13;;;;;;;0.60;0.60;;;24.90;44.90;;;;;;4974501;28;20474;-75
2022/10/09 14:53:40;;;;;;;0.60;0.60;;;25.20;44.70;;;;;;4974354;28;21005;-75
2022/10/09 14:56:10;;;;;;;0.60;0.50;;;25.30;44.60;;;;;;4974797;28;20461;-75
2022/10/09 14:58:38;;;;;;;0.80;0.60;;;25.20;45.00;;;;;;4974558;28;20458;-76
2022/10/09 15:01:05;;;;;;;0.60;0.60;;;24.90;45.30;;;;;;4974695;28;20554;-76
2022/10/09 15:03:33;;;;;;;0.60;0.60;;;24.40;46.20;;;;;;4974556;28;20972;-74
2022/10/09 15:06:02;;;;;;;1.47;0.70;;;23.70;47.70;;;;;;4974482;28;20461;-74
2022/10/09 15:08:31;;;;;;;0.73;0.60;;;23.40;48.50;;;;;;4974444;28;20458;-74
2022/10/09 15:10:58;;;;;;;0.67;0.60;;;22.20;50.40;;;;;;4974423;28;20524;-73
2022/10/09 15:13:25;;;;;;;0.83;0.60;;;21.10;52.80;;;;;;4975822;28;20481;-73
2022/10/09 15:15:51;;;;;;;0.60;0.60;;;20.30;54.80;;;;;;4974119;28;20830;-73
2022/10/09 15:18:18;;;;;;;0.70;0.60;;;19.60;56.40;;;;;;4974422;28;20470;-74
2022/10/09 15:20:45;;;;;;;0.60;0.60;;;18.70;58.80;;;;;;4974336;28;20479;-74
2022/10/09 15:23:12;;;;;;;0.80;0.70;;;18.20;60.50;;;;;;4974338;28;20458;-73
2022/10/09 15:25:48;;;;;;;0.60;0.60;;;18.20;61.00;;;;;;4974365;28;20449;-74
2022/10/09 15:28:15;;;;;;;0.70;0.60;;;18.10;61.20;;;;;;4974548;28;20442;-73
2022/10/09 15:30:44;;;;;;;0.70;0.60;;;17.80;62.20;;;;;;4974270;28;20450;-73
2022/10/09 15:33:10;;;;;;;0.70;0.70;;;17.40;63.10;;;;;;4974206;28;20478;-74
2022/10/09 15:35:37;;;;;;;0.70;0.60;;;17.10;64.20;;;;;;4974239;28;20454;-73
2022/10/09 15:38:04;;;;;;;0.80;0.70;;;17.00;65.00;;;;;;4974127;28;20454;-75
2022/10/09 15:40:30;;;;;;;0.70;0.70;;;16.80;65.80;;;;;;4974199;28;20890;-75
2022/10/09 15:42:58;;;;;;;0.60;0.60;;;16.70;66.60;;;;;;4974213;28;20458;-76
2022/10/09 15:45:25;;;;;;;0.60;0.60;;;16.70;67.00;;;;;;4974184;28;20453;-74
2022/10/09 15:47:52;;;;;;;0.70;0.70;;;16.70;67.00;;;;;;4974164;28;20458;-75
2022/10/09 15:50:18;;;;;;;0.60;0.60;;;16.70;67.20;;;;;;4974297;28;20937;-76
2022/10/09 15:52:45;;;;;;;1.43;0.80;;;16.60;67.50;;;;;;4973792;28;21040;-76
2022/10/09 15:55:12;;;;;;;2.40;0.70;;;16.50;68.10;;;;;;4973791;28;21133;-75
2022/10/09 15:57:38;;;;;;;0.73;0.73;;;16.40;68.80;;;;;;4973775;28;20981;-74
2022/10/09 16:00:08;;;;;;;0.70;0.60;;;16.40;69.00;;;;;;4973982;28;20450;-74